San Fernando, Trinidad and Tobago
Current Conditions -  °F | °C
As of 4:00 PM on Wednesday 28 Jan 2015 (Local Time) from TTPP Reporting Station
Few Clouds Few Clouds  
Wind Chill: 86°   Ceiling: Unl
Heat Index: 88°   Visibility: 6mi
Dew Point: 66°   Wind: 9mph
Humidity: 51%   Direction: 120°ESE
Pressure: 29.85"   Gusts: NA
Location:  10.25°N, 61.46°W
Report Text: TTPP 282000Z 12008KT 9999 FEW020 30/19 Q1011 NOSIG
Loading
Personal Weather Stations






























Interactive Weather Map New forecast layout! Learn more

10-Day Weather Forecast

Advertisements
Track Severe Weather on mobile